createdAt,value
2019-01-26T00:00:43.146Z,19.45
2019-01-26T00:03:11.551Z,19.47
2019-01-26T00:05:39.787Z,19.46
2019-01-26T00:08:08.034Z,19.44
2019-01-26T00:10:36.252Z,19.45
2019-01-26T00:13:04.468Z,19.45
2019-01-26T00:15:32.745Z,19.43
2019-01-26T00:18:00.930Z,19.45
2019-01-26T00:20:29.168Z,19.45
2019-01-26T00:22:57.423Z,19.45
2019-01-26T00:25:25.636Z,19.43
2019-01-26T00:27:53.849Z,19.45
2019-01-26T00:30:22.097Z,19.46
2019-01-26T00:32:50.334Z,19.44
2019-01-26T00:35:18.541Z,19.45
2019-01-26T00:37:46.746Z,19.45
2019-01-26T00:40:14.989Z,19.45
2019-01-26T00:42:43.198Z,19.45
2019-01-26T00:45:12.981Z,19.42
2019-01-26T00:47:41.202Z,19.42
2019-01-26T00:50:11.728Z,19.40
2019-01-26T00:52:39.980Z,19.42
2019-01-26T00:55:09.127Z,19.39
2019-01-26T00:57:37.370Z,19.40
2019-01-26T01:00:08.844Z,19.39
2019-01-26T01:02:37.093Z,19.37
2019-01-26T01:05:07.543Z,19.40
2019-01-26T01:07:35.755Z,19.39
2019-01-26T01:10:09.468Z,19.37
2019-01-26T01:12:37.693Z,19.37
2019-01-26T01:15:08.955Z,19.40
2019-01-26T01:17:37.163Z,19.37
2019-01-26T01:20:08.240Z,19.39
2019-01-26T01:22:36.486Z,19.36
2019-01-26T01:25:06.553Z,19.39
2019-01-26T01:27:34.757Z,19.41
2019-01-26T01:30:03.263Z,19.38
2019-01-26T01:32:31.464Z,19.39
2019-01-26T01:34:59.701Z,19.38
2019-01-26T01:37:27.898Z,19.38
2019-01-26T01:39:56.136Z,19.36
2019-01-26T01:42:24.367Z,19.35
2019-01-26T01:44:52.574Z,19.38
2019-01-26T01:47:20.826Z,19.35
2019-01-26T01:49:49.038Z,19.36
2019-01-26T01:52:17.242Z,19.34
2019-01-26T01:54:45.473Z,19.36
2019-01-26T01:57:13.700Z,19.37
2019-01-26T01:59:41.916Z,19.38
2019-01-26T02:02:10.146Z,19.33
2019-01-26T02:04:38.371Z,19.36
2019-01-26T02:07:06.596Z,19.36
2019-01-26T02:09:34.832Z,19.34
2019-01-26T02:12:03.031Z,19.34
2019-01-26T02:14:31.260Z,19.32
2019-01-26T02:16:59.483Z,19.32
2019-01-26T02:19:27.722Z,19.31
2019-01-26T02:21:55.928Z,19.30
2019-01-26T02:24:24.138Z,19.32
2019-01-26T02:26:52.375Z,19.33
2019-01-26T02:29:20.588Z,19.30
2019-01-26T02:31:48.822Z,19.31
2019-01-26T02:34:17.022Z,19.30
2019-01-26T02:36:45.261Z,19.27
2019-01-26T02:39:13.491Z,19.28
2019-01-26T02:41:41.700Z,19.30
2019-01-26T02:44:09.937Z,19.30
2019-01-26T02:46:38.164Z,19.31
2019-01-26T02:49:06.386Z,19.30
2019-01-26T02:51:34.595Z,19.27
2019-01-26T02:54:02.792Z,19.30
2019-01-26T02:56:31.012Z,19.29
2019-01-26T02:58:59.215Z,19.28
2019-01-26T03:01:27.451Z,19.26
2019-01-26T03:03:55.675Z,19.28
2019-01-26T03:06:23.878Z,19.26
2019-01-26T03:08:52.104Z,19.26
2019-01-26T03:11:20.329Z,19.26
2019-01-26T03:13:48.556Z,19.25
2019-01-26T03:16:16.792Z,19.25
2019-01-26T03:18:44.986Z,19.24
2019-01-26T03:21:13.178Z,19.23
2019-01-26T03:23:41.568Z,19.22
2019-01-26T03:26:09.801Z,19.23
2019-01-26T03:28:38.929Z,19.23
2019-01-26T03:31:07.127Z,19.22
2019-01-26T03:33:35.352Z,19.23
2019-01-26T03:36:03.551Z,19.22
2019-01-26T03:38:31.793Z,19.24
2019-01-26T03:40:59.986Z,19.23
2019-01-26T03:43:28.207Z,19.21
2019-01-26T03:45:56.429Z,19.23
2019-01-26T03:48:24.652Z,19.22
2019-01-26T03:50:52.860Z,19.23
2019-01-26T03:53:21.077Z,19.19
2019-01-26T03:55:49.325Z,19.20
2019-01-26T03:58:17.539Z,19.18
2019-01-26T04:00:45.751Z,19.16
2019-01-26T04:03:13.971Z,19.19
2019-01-26T04:05:42.196Z,19.20
2019-01-26T04:08:10.437Z,19.19
2019-01-26T04:10:38.661Z,19.17
2019-01-26T04:13:06.865Z,19.18
2019-01-26T04:15:35.260Z,19.19
2019-01-26T04:18:03.474Z,19.18
2019-01-26T04:20:31.667Z,19.18
2019-01-26T04:22:59.907Z,19.17
2019-01-26T04:25:28.099Z,19.20
2019-01-26T04:27:56.315Z,19.17
2019-01-26T04:30:24.511Z,19.18
2019-01-26T04:32:52.750Z,19.18
2019-01-26T04:35:20.934Z,19.17
2019-01-26T04:37:49.175Z,19.19
2019-01-26T04:40:18.302Z,19.16
2019-01-26T04:42:46.518Z,19.15
2019-01-26T04:45:17.294Z,19.17
2019-01-26T04:47:45.521Z,19.16
2019-01-26T04:50:15.567Z,19.15
2019-01-26T04:52:43.797Z,19.15
2019-01-26T04:55:12.011Z,19.15
2019-01-26T04:57:40.228Z,19.17
2019-01-26T05:00:19.995Z,19.15
2019-01-26T05:02:48.196Z,19.16
2019-01-26T05:05:16.401Z,19.17
2019-01-26T05:07:44.633Z,19.13
2019-01-26T05:10:18.014Z,19.13
2019-01-26T05:12:46.681Z,19.16
2019-01-26T05:15:15.742Z,19.15
2019-01-26T05:17:44.005Z,19.17
2019-01-26T05:20:15.498Z,19.19
2019-01-26T05:22:43.767Z,19.15
2019-01-26T05:25:12.011Z,19.13
2019-01-26T05:27:40.235Z,19.16
2019-01-26T05:30:14.416Z,19.16
2019-01-26T05:32:42.645Z,19.15
2019-01-26T05:35:10.840Z,19.14
2019-01-26T05:37:39.081Z,19.14
2019-01-26T05:40:10.679Z,19.14
2019-01-26T05:42:38.893Z,19.16
2019-01-26T05:45:10.204Z,19.15
2019-01-26T05:47:38.408Z,19.15
2019-01-26T05:50:09.848Z,19.15
2019-01-26T05:52:38.092Z,19.15
2019-01-26T05:55:08.259Z,19.15
2019-01-26T05:57:36.478Z,19.12
2019-01-26T06:00:20.895Z,19.15
2019-01-26T06:02:49.114Z,19.14
2019-01-26T06:05:17.467Z,19.14
2019-01-26T06:07:45.688Z,19.15
2019-01-26T06:10:13.879Z,19.15
2019-01-26T06:12:42.096Z,19.11
2019-01-26T06:15:11.846Z,19.12
2019-01-26T06:17:40.054Z,19.10
2019-01-26T06:20:13.745Z,19.11
2019-01-26T06:22:41.993Z,19.16
2019-01-26T06:25:18.828Z,19.18
2019-01-26T06:27:47.236Z,19.22
2019-01-26T06:30:25.158Z,19.19
2019-01-26T06:32:53.367Z,19.18
2019-01-26T06:35:21.614Z,19.12
2019-01-26T06:37:49.812Z,19.14
2019-01-26T06:40:19.290Z,19.19
2019-01-26T06:42:47.486Z,19.17
2019-01-26T06:45:17.824Z,19.14
2019-01-26T06:47:46.057Z,19.15
2019-01-26T06:50:18.600Z,19.14
2019-01-26T06:52:46.836Z,19.14
2019-01-26T06:55:15.050Z,19.13
2019-01-26T06:57:43.289Z,19.14
2019-01-26T07:00:16.696Z,19.14
2019-01-26T07:02:44.897Z,19.13
2019-01-26T07:05:17.637Z,19.13
2019-01-26T07:07:45.868Z,19.10
2019-01-26T07:10:14.077Z,19.15
2019-01-26T07:12:42.283Z,19.16
2019-01-26T07:15:11.808Z,19.13
2019-01-26T07:17:40.020Z,19.15
2019-01-26T07:20:13.748Z,19.15
2019-01-26T07:22:41.969Z,19.14
2019-01-26T07:25:10.459Z,19.16
2019-01-26T07:27:38.670Z,19.19
2019-01-26T07:30:10.150Z,19.17
2019-01-26T07:32:38.376Z,19.17
2019-01-26T07:35:07.324Z,19.16
2019-01-26T07:37:35.569Z,19.14
2019-01-26T07:40:06.176Z,19.16
2019-01-26T07:42:34.394Z,19.17
2019-01-26T07:45:02.599Z,19.13
2019-01-26T07:47:30.984Z,19.14
2019-01-26T07:49:59.176Z,19.11
2019-01-26T07:52:27.403Z,19.13
2019-01-26T07:54:55.600Z,19.13
2019-01-26T07:57:23.836Z,19.12
2019-01-26T07:59:52.054Z,19.11
2019-01-26T08:02:20.293Z,19.12
2019-01-26T08:04:48.550Z,19.10
2019-01-26T08:07:16.773Z,19.11
2019-01-26T08:09:44.984Z,19.10
2019-01-26T08:12:13.203Z,19.09
2019-01-26T08:14:41.428Z,19.11
2019-01-26T08:17:09.651Z,19.07
2019-01-26T08:19:37.854Z,19.10
2019-01-26T08:22:06.090Z,19.10
2019-01-26T08:24:34.341Z,19.07
2019-01-26T08:27:02.516Z,19.09
2019-01-26T08:29:30.732Z,19.08
2019-01-26T08:31:58.942Z,19.06
2019-01-26T08:34:27.156Z,19.06
2019-01-26T08:36:55.387Z,19.07
2019-01-26T08:39:23.573Z,19.07
2019-01-26T08:41:51.811Z,19.07
2019-01-26T08:44:20.149Z,19.11
2019-01-26T08:46:48.351Z,19.10
2019-01-26T08:49:16.551Z,19.08
2019-01-26T08:51:44.767Z,19.12
2019-01-26T08:54:12.956Z,19.13
2019-01-26T08:56:41.199Z,19.10
2019-01-26T08:59:09.407Z,19.12
2019-01-26T09:01:37.637Z,19.15
2019-01-26T09:04:07.500Z,19.14
2019-01-26T09:06:35.697Z,19.14
2019-01-26T09:09:07.352Z,18.90
2019-01-26T09:11:35.585Z,18.82
2019-01-26T09:14:03.816Z,18.84
2019-01-26T09:16:32.041Z,18.98
2019-01-26T09:19:00.247Z,19.12
2019-01-26T09:21:28.491Z,19.23
2019-01-26T09:23:56.702Z,19.29
2019-01-26T09:26:24.930Z,19.29
2019-01-26T09:28:53.120Z,19.32
2019-01-26T09:31:21.369Z,19.29
2019-01-26T09:33:49.588Z,19.32
2019-01-26T09:36:17.819Z,19.32
2019-01-26T09:38:46.024Z,19.35
2019-01-26T09:41:14.245Z,19.35
2019-01-26T09:43:42.466Z,19.40
2019-01-26T09:46:10.705Z,19.43
2019-01-26T09:48:38.935Z,19.47
2019-01-26T09:51:07.137Z,19.52
2019-01-26T09:53:35.387Z,19.53
2019-01-26T09:56:03.624Z,19.51
2019-01-26T09:58:31.843Z,19.54
2019-01-26T10:01:00.066Z,19.58
2019-01-26T10:03:28.263Z,19.63
2019-01-26T10:05:56.495Z,19.67
2019-01-26T10:08:24.705Z,19.65
2019-01-26T10:10:52.943Z,19.65
2019-01-26T10:13:21.176Z,19.65
2019-01-26T10:15:49.513Z,19.65
2019-01-26T10:18:17.745Z,19.67
2019-01-26T10:20:45.986Z,19.71
2019-01-26T10:23:14.196Z,19.71
2019-01-26T10:25:48.629Z,19.70
2019-01-26T10:28:12.554Z,19.72
2019-01-26T10:30:44.248Z,19.77
2019-01-26T10:33:12.495Z,19.82
2019-01-26T10:35:42.366Z,19.86
2019-01-26T10:38:10.617Z,20.09
2019-01-26T10:40:55.792Z,20.28
2019-01-26T10:43:25.667Z,20.08
2019-01-26T10:45:53.881Z,20.01
2019-01-26T10:48:22.087Z,19.99
2019-01-26T10:50:50.432Z,19.96
2019-01-26T10:53:18.633Z,20.01
2019-01-26T10:55:46.840Z,20.05
2019-01-26T10:58:15.073Z,20.16
2019-01-26T11:00:43.308Z,20.14
2019-01-26T11:03:11.519Z,20.09
2019-01-26T11:05:39.740Z,20.13
2019-01-26T11:08:07.927Z,20.10
2019-01-26T11:10:36.139Z,20.15
2019-01-26T11:13:04.343Z,20.19
2019-01-26T11:15:32.578Z,20.19
2019-01-26T11:18:00.877Z,20.21
2019-01-26T11:20:29.469Z,20.29
2019-01-26T11:22:57.696Z,20.26
2019-01-26T11:25:25.901Z,20.23
2019-01-26T11:27:54.150Z,20.15
2019-01-26T11:30:23.359Z,20.16
2019-01-26T11:32:50.881Z,20.23
2019-01-26T11:35:19.657Z,20.16
2019-01-26T11:37:47.239Z,20.16
2019-01-26T11:40:19.169Z,20.16
2019-01-26T11:42:46.671Z,20.16
2019-01-26T11:45:16.425Z,20.16
2019-01-26T11:47:43.923Z,20.08
2019-01-26T11:50:13.087Z,20.10
2019-01-26T11:52:40.604Z,20.13
2019-01-26T11:55:09.759Z,20.14
2019-01-26T11:57:37.242Z,20.15
2019-01-26T12:00:16.882Z,19.97
2019-01-26T12:02:46.028Z,19.56
2019-01-26T12:05:15.211Z,19.56
2019-01-26T12:07:42.752Z,19.73
2019-01-26T12:10:10.277Z,19.62
2019-01-26T12:12:37.775Z,19.17
2019-01-26T12:15:06.920Z,18.89
2019-01-26T12:17:34.463Z,18.30
2019-01-26T12:20:01.961Z,18.04
2019-01-26T12:22:29.485Z,18.24
2019-01-26T12:24:56.988Z,18.05
2019-01-26T12:27:24.511Z,17.84
2019-01-26T12:29:52.024Z,17.62
2019-01-26T12:32:19.516Z,17.54
2019-01-26T12:34:47.718Z,18.67
2019-01-26T12:37:15.246Z,19.20
2019-01-26T12:39:42.772Z,19.48
2019-01-26T12:42:10.306Z,19.62
2019-01-26T12:44:37.838Z,19.70
2019-01-26T12:47:05.327Z,19.75
2019-01-26T12:49:32.874Z,19.69
2019-01-26T12:52:00.387Z,19.66
2019-01-26T12:54:27.918Z,19.68
2019-01-26T12:56:55.430Z,19.70
2019-01-26T12:59:22.942Z,19.75
2019-01-26T13:01:50.441Z,19.77
2019-01-26T13:04:17.952Z,19.80
2019-01-26T13:06:45.469Z,19.93
2019-01-26T13:09:13.005Z,19.84
2019-01-26T13:11:40.515Z,19.82
2019-01-26T13:14:08.045Z,19.92
2019-01-26T13:16:35.685Z,19.93
2019-01-26T13:19:03.208Z,19.88
2019-01-26T13:21:30.704Z,20.07
2019-01-26T13:23:58.257Z,20.09
2019-01-26T13:26:25.765Z,20.14
2019-01-26T13:28:53.310Z,20.17
2019-01-26T13:31:20.840Z,20.14
2019-01-26T13:33:48.373Z,20.09
2019-01-26T13:36:15.869Z,20.08
2019-01-26T13:38:43.510Z,20.24
2019-01-26T13:41:11.026Z,20.23
2019-01-26T13:43:38.542Z,20.34
2019-01-26T13:46:06.079Z,20.36
2019-01-26T13:48:33.647Z,20.39
2019-01-26T13:51:01.277Z,20.28
2019-01-26T13:53:28.825Z,20.27
2019-01-26T13:55:56.322Z,20.30
2019-01-26T13:58:23.859Z,20.32
2019-01-26T14:00:51.362Z,20.33
2019-01-26T14:03:18.890Z,20.30
2019-01-26T14:05:46.431Z,20.28
2019-01-26T14:08:13.913Z,20.28
2019-01-26T14:10:41.441Z,20.28
2019-01-26T14:13:08.946Z,20.31
2019-01-26T14:15:36.457Z,20.33
2019-01-26T14:18:04.061Z,20.31
2019-01-26T14:20:31.658Z,20.32
2019-01-26T14:22:59.195Z,20.40
2019-01-26T14:25:26.740Z,20.47
2019-01-26T14:27:54.298Z,20.40
2019-01-26T14:30:23.449Z,20.37
2019-01-26T14:32:52.606Z,20.34
2019-01-26T14:35:20.221Z,20.24
2019-01-26T14:37:47.729Z,20.24
2019-01-26T14:40:15.987Z,20.31
2019-01-26T14:42:43.495Z,20.34
2019-01-26T14:45:12.403Z,20.32
2019-01-26T14:47:39.938Z,20.35
2019-01-26T14:50:08.988Z,20.28
2019-01-26T14:52:36.524Z,20.21
2019-01-26T14:55:05.542Z,20.21
2019-01-26T14:57:33.069Z,20.24
2019-01-26T15:00:00.560Z,20.16
2019-01-26T15:02:28.060Z,19.93
2019-01-26T15:04:55.573Z,20.11
2019-01-26T15:07:23.062Z,20.26
2019-01-26T15:09:50.615Z,20.32
2019-01-26T15:12:18.111Z,20.42
2019-01-26T15:14:45.623Z,20.45
2019-01-26T15:17:13.211Z,20.38
2019-01-26T15:19:40.799Z,20.39
2019-01-26T15:22:08.321Z,20.37
2019-01-26T15:24:35.851Z,20.38
2019-01-26T15:27:03.335Z,20.29
2019-01-26T15:29:30.867Z,20.26
2019-01-26T15:31:58.383Z,20.33
2019-01-26T15:34:25.917Z,20.40
2019-01-26T15:36:53.442Z,20.43
2019-01-26T15:39:20.944Z,20.47
2019-01-26T15:41:48.480Z,20.44
2019-01-26T15:44:15.975Z,20.39
2019-01-26T15:46:43.471Z,20.37
2019-01-26T15:49:10.991Z,20.40
2019-01-26T15:51:38.489Z,20.38
2019-01-26T15:54:06.022Z,20.40
2019-01-26T15:56:33.525Z,20.42
2019-01-26T15:59:01.051Z,20.50
2019-01-26T16:01:28.568Z,20.49
2019-01-26T16:03:56.087Z,20.48
2019-01-26T16:06:23.632Z,20.46
2019-01-26T16:08:51.130Z,20.41
2019-01-26T16:11:18.614Z,20.41
2019-01-26T16:13:46.137Z,20.46
2019-01-26T16:16:13.646Z,20.50
2019-01-26T16:18:41.170Z,20.52
2019-01-26T16:21:08.688Z,20.48
2019-01-26T16:23:36.211Z,20.50
2019-01-26T16:26:03.694Z,20.51
2019-01-26T16:28:31.206Z,20.48
2019-01-26T16:30:58.731Z,20.49
2019-01-26T16:33:26.241Z,20.50
2019-01-26T16:35:53.730Z,20.53
2019-01-26T16:38:21.279Z,20.51
2019-01-26T16:40:48.822Z,20.50
2019-01-26T16:43:16.326Z,20.51
2019-01-26T16:45:43.862Z,20.53
2019-01-26T16:48:11.385Z,20.51
2019-01-26T16:50:38.886Z,20.49
2019-01-26T16:53:06.529Z,20.49
2019-01-26T16:55:34.025Z,20.48
2019-01-26T16:58:01.526Z,20.49
2019-01-26T17:00:30.670Z,20.46
2019-01-26T17:02:58.175Z,20.47
2019-01-26T17:05:25.982Z,20.44
2019-01-26T17:07:53.664Z,20.47
2019-01-26T17:10:21.554Z,20.46
2019-01-26T17:12:49.062Z,20.47
2019-01-26T17:15:16.555Z,20.50
2019-01-26T17:17:44.057Z,20.47
2019-01-26T17:20:16.189Z,20.47
2019-01-26T17:22:43.736Z,20.46
2019-01-26T17:25:11.270Z,20.50
2019-01-26T17:27:38.760Z,20.49
2019-01-26T17:30:07.899Z,20.52
2019-01-26T17:32:35.405Z,20.51
2019-01-26T17:35:02.922Z,20.54
2019-01-26T17:37:30.444Z,20.55
2019-01-26T17:39:57.958Z,20.53
2019-01-26T17:42:25.515Z,20.51
2019-01-26T17:44:53.047Z,20.50
2019-01-26T17:47:20.545Z,20.51
2019-01-26T17:49:48.158Z,20.53
2019-01-26T17:52:15.711Z,20.51
2019-01-26T17:54:43.209Z,20.46
2019-01-26T17:57:10.709Z,20.49
2019-01-26T17:59:38.225Z,20.49
2019-01-26T18:02:05.830Z,20.48
2019-01-26T18:04:33.329Z,20.44
2019-01-26T18:07:00.872Z,20.49
2019-01-26T18:09:28.382Z,20.50
2019-01-26T18:11:55.901Z,20.50
2019-01-26T18:14:23.419Z,20.52
2019-01-26T18:16:50.947Z,20.52
2019-01-26T18:19:18.476Z,20.54
2019-01-26T18:21:46.034Z,20.56
2019-01-26T18:24:13.545Z,20.54
2019-01-26T18:26:41.072Z,20.57
2019-01-26T18:29:08.569Z,20.59
2019-01-26T18:31:36.117Z,20.61
2019-01-26T18:34:03.604Z,20.66
2019-01-26T18:36:31.135Z,20.64
2019-01-26T18:38:58.650Z,20.61
2019-01-26T18:41:26.171Z,20.54
2019-01-26T18:43:53.668Z,20.55
2019-01-26T18:46:21.200Z,20.54
2019-01-26T18:48:48.712Z,20.56
2019-01-26T18:51:16.329Z,20.57
2019-01-26T18:53:43.912Z,20.55
2019-01-26T18:56:11.401Z,20.57
2019-01-26T18:58:38.938Z,20.56
2019-01-26T19:01:06.431Z,20.54
2019-01-26T19:03:38.570Z,20.55
2019-01-26T19:06:06.152Z,20.55
2019-01-26T19:08:33.669Z,20.56
2019-01-26T19:11:01.187Z,20.56
2019-01-26T19:13:28.733Z,20.57
2019-01-26T19:15:56.307Z,20.58
2019-01-26T19:18:23.807Z,20.58
2019-01-26T19:20:51.312Z,20.54
2019-01-26T19:23:18.852Z,20.57
2019-01-26T19:25:46.353Z,20.52
2019-01-26T19:28:13.861Z,20.54
2019-01-26T19:30:41.396Z,20.47
2019-01-26T19:33:08.893Z,20.39
2019-01-26T19:35:36.414Z,20.36
2019-01-26T19:38:03.984Z,20.32
2019-01-26T19:40:31.521Z,20.30
2019-01-26T19:42:59.052Z,20.29
2019-01-26T19:45:26.564Z,20.28
2019-01-26T19:47:54.111Z,20.23
2019-01-26T19:50:22.268Z,20.23
2019-01-26T19:52:49.775Z,20.22
2019-01-26T19:55:18.068Z,20.22
2019-01-26T19:57:45.588Z,20.23
2019-01-26T20:00:13.114Z,20.21
2019-01-26T20:02:40.606Z,20.20
2019-01-26T20:05:09.894Z,20.18
2019-01-26T20:07:37.387Z,20.12
2019-01-26T20:10:06.099Z,20.13
2019-01-26T20:12:33.638Z,20.11
2019-01-26T20:15:01.194Z,20.10
2019-01-26T20:17:28.692Z,20.08
2019-01-26T20:19:56.194Z,20.08
2019-01-26T20:22:23.705Z,20.08
2019-01-26T20:24:51.204Z,20.05
2019-01-26T20:27:18.730Z,20.03
2019-01-26T20:29:46.250Z,20.02
2019-01-26T20:32:13.782Z,19.97
2019-01-26T20:34:41.276Z,19.99
2019-01-26T20:37:08.800Z,20.01
2019-01-26T20:39:36.316Z,19.99
2019-01-26T20:42:03.873Z,20.00
2019-01-26T20:44:31.376Z,19.97
2019-01-26T20:46:58.906Z,19.98
2019-01-26T20:49:26.404Z,19.96
2019-01-26T20:51:53.912Z,19.95
2019-01-26T20:54:21.444Z,19.96
2019-01-26T20:56:48.942Z,19.95
2019-01-26T20:59:16.459Z,19.93
2019-01-26T21:01:43.998Z,19.94
2019-01-26T21:04:11.491Z,19.95
2019-01-26T21:06:38.991Z,19.92
2019-01-26T21:09:06.874Z,19.91
2019-01-26T21:11:34.373Z,19.89
2019-01-26T21:14:01.903Z,19.88
2019-01-26T21:16:29.463Z,19.88
2019-01-26T21:18:57.005Z,19.89
2019-01-26T21:21:24.930Z,19.85
2019-01-26T21:23:52.426Z,19.86
2019-01-26T21:26:19.995Z,19.88
2019-01-26T21:28:47.491Z,19.88
2019-01-26T21:31:14.998Z,19.87
2019-01-26T21:33:42.534Z,19.86
2019-01-26T21:36:10.047Z,19.84
2019-01-26T21:38:37.580Z,19.84
2019-01-26T21:41:05.114Z,19.82
2019-01-26T21:43:32.620Z,19.82
2019-01-26T21:46:00.094Z,19.81
2019-01-26T21:48:27.624Z,19.80
2019-01-26T21:50:55.114Z,19.79
2019-01-26T21:53:22.644Z,19.80
2019-01-26T21:55:50.174Z,19.82
2019-01-26T21:58:17.697Z,19.78
2019-01-26T22:00:45.200Z,19.79
2019-01-26T22:03:12.726Z,19.78
2019-01-26T22:05:40.228Z,19.77
2019-01-26T22:08:07.757Z,19.75
2019-01-26T22:10:35.260Z,19.77
2019-01-26T22:13:02.811Z,19.77
2019-01-26T22:15:30.339Z,19.77
2019-01-26T22:17:57.871Z,19.78
2019-01-26T22:20:28.405Z,19.76
2019-01-26T22:22:56.245Z,19.76
2019-01-26T22:25:23.782Z,19.71
2019-01-26T22:27:51.658Z,19.76
2019-01-26T22:30:20.269Z,19.73
2019-01-26T22:32:47.763Z,19.73
2019-01-26T22:35:15.287Z,19.75
2019-01-26T22:37:42.775Z,19.73
2019-01-26T22:40:27.070Z,19.73
2019-01-26T22:42:54.575Z,19.73
2019-01-26T22:45:22.274Z,19.70
2019-01-26T22:47:49.799Z,19.70
2019-01-26T22:50:18.684Z,19.68
2019-01-26T22:52:46.200Z,19.71
2019-01-26T22:55:14.770Z,19.72
2019-01-26T22:57:42.280Z,19.70
2019-01-26T23:00:11.406Z,19.69
2019-01-26T23:02:38.945Z,19.66
2019-01-26T23:05:20.322Z,19.68
2019-01-26T23:07:47.845Z,19.69
2019-01-26T23:10:23.117Z,19.67
2019-01-26T23:12:58.223Z,19.68
2019-01-26T23:15:43.769Z,19.70
2019-01-26T23:18:27.899Z,19.65
2019-01-26T23:21:03.174Z,19.66
2019-01-26T23:23:35.001Z,19.67
2019-01-26T23:26:09.830Z,19.64
2019-01-26T23:28:50.957Z,19.65
2019-01-26T23:31:18.659Z,19.62
2019-01-26T23:33:46.751Z,19.64
2019-01-26T23:36:14.643Z,19.65
2019-01-26T23:38:42.135Z,19.66
2019-01-26T23:41:09.660Z,19.66
2019-01-26T23:43:37.181Z,19.64
2019-01-26T23:46:04.685Z,19.63
2019-01-26T23:48:32.194Z,19.64
2019-01-26T23:50:59.713Z,19.64
2019-01-26T23:53:27.227Z,19.65
2019-01-26T23:55:54.739Z,19.62
2019-01-26T23:58:22.249Z,19.60
